sensor_id;sensor_type;location;lat;lon;timestamp;pressure;altitude;pressure_sealevel;temperature;humidity
47883;BME280;37739;50.350;7.578;2024-01-11T00:01:52;101062.31;;;-3.88;70.67
47883;BME280;37739;50.350;7.578;2024-01-11T00:04:20;101053.72;;;-3.90;71.70
47883;BME280;37739;50.350;7.578;2024-01-11T00:06:49;101058.75;;;-3.90;70.79
47883;BME280;37739;50.350;7.578;2024-01-11T00:09:20;101062.84;;;-3.91;71.84
47883;BME280;37739;50.350;7.578;2024-01-11T00:11:45;101055.88;;;-3.93;72.38
47883;BME280;37739;50.350;7.578;2024-01-11T00:14:18;101055.19;;;-4.00;72.23
47883;BME280;37739;50.350;7.578;2024-01-11T00:16:43;101052.88;;;-4.05;71.92
47883;BME280;37739;50.350;7.578;2024-01-11T00:19:11;101043.78;;;-4.19;72.91
47883;BME280;37739;50.350;7.578;2024-01-11T00:21:36;101050.03;;;-4.23;73.68
47883;BME280;37739;50.350;7.578;2024-01-11T00:24:03;101054.31;;;-4.22;73.50
47883;BME280;37739;50.350;7.578;2024-01-11T00:26:29;101053.97;;;-4.25;73.50
47883;BME280;37739;50.350;7.578;2024-01-11T00:28:54;101049.50;;;-4.20;72.98
47883;BME280;37739;50.350;7.578;2024-01-11T00:31:22;101057.03;;;-4.35;73.46
47883;BME280;37739;50.350;7.578;2024-01-11T00:33:49;101054.53;;;-4.35;73.92
47883;BME280;37739;50.350;7.578;2024-01-11T00:36:18;101065.97;;;-4.22;73.10
47883;BME280;37739;50.350;7.578;2024-01-11T00:38:47;101062.19;;;-4.11;72.79
47883;BME280;37739;50.350;7.578;2024-01-11T00:41:12;101056.44;;;-4.10;72.33
47883;BME280;37739;50.350;7.578;2024-01-11T00:43:38;101064.69;;;-4.11;72.38
47883;BME280;37739;50.350;7.578;2024-01-11T00:46:03;101070.28;;;-4.21;73.03
47883;BME280;37739;50.350;7.578;2024-01-11T00:48:28;101066.31;;;-4.19;72.25
47883;BME280;37739;50.350;7.578;2024-01-11T00:50:56;101065.97;;;-4.22;73.25
47883;BME280;37739;50.350;7.578;2024-01-11T00:53:21;101065.25;;;-4.21;73.02
47883;BME280;37739;50.350;7.578;2024-01-11T00:55:46;101064.72;;;-4.19;73.24
47883;BME280;37739;50.350;7.578;2024-01-11T00:58:12;101058.81;;;-4.19;72.78
47883;BME280;37739;50.350;7.578;2024-01-11T01:00:39;101057.00;;;-4.20;73.75
47883;BME280;37739;50.350;7.578;2024-01-11T01:03:04;101058.63;;;-4.21;73.28
47883;BME280;37739;50.350;7.578;2024-01-11T01:05:32;101064.19;;;-4.23;73.70
47883;BME280;37739;50.350;7.578;2024-01-11T01:08:00;101060.44;;;-4.27;74.47
47883;BME280;37739;50.350;7.578;2024-01-11T01:10:27;101068.09;;;-4.25;73.64
47883;BME280;37739;50.350;7.578;2024-01-11T01:12:53;101069.53;;;-4.27;74.58
47883;BME280;37739;50.350;7.578;2024-01-11T01:15:18;101071.88;;;-4.29;74.69
47883;BME280;37739;50.350;7.578;2024-01-11T01:17:43;101084.06;;;-4.25;74.58
47883;BME280;37739;50.350;7.578;2024-01-11T01:20:09;101083.00;;;-4.27;73.66
47883;BME280;37739;50.350;7.578;2024-01-11T01:22:34;101077.78;;;-4.28;73.73
47883;BME280;37739;50.350;7.578;2024-01-11T01:25:04;101083.34;;;-4.31;74.81
47883;BME280;37739;50.350;7.578;2024-01-11T01:27:32;101083.88;;;-4.34;74.20
47883;BME280;37739;50.350;7.578;2024-01-11T01:29:57;101070.09;;;-4.37;74.19
47883;BME280;37739;50.350;7.578;2024-01-11T01:32:25;101074.03;;;-4.39;74.62
47883;BME280;37739;50.350;7.578;2024-01-11T01:34:55;101076.72;;;-4.38;75.53
47883;BME280;37739;50.350;7.578;2024-01-11T01:37:23;101075.66;;;-4.40;74.94
47883;BME280;37739;50.350;7.578;2024-01-11T01:39:51;101076.34;;;-4.41;75.07
47883;BME280;37739;50.350;7.578;2024-01-11T01:42:16;101087.09;;;-4.42;76.22
47883;BME280;37739;50.350;7.578;2024-01-11T01:44:42;101090.31;;;-4.43;74.94
47883;BME280;37739;50.350;7.578;2024-01-11T01:47:08;101086.22;;;-4.42;75.08
47883;BME280;37739;50.350;7.578;2024-01-11T01:49:35;101087.09;;;-4.42;75.00
47883;BME280;37739;50.350;7.578;2024-01-11T01:52:03;101090.16;;;-4.44;74.55
47883;BME280;37739;50.350;7.578;2024-01-11T01:54:31;101091.94;;;-4.43;74.50
47883;BME280;37739;50.350;7.578;2024-01-11T01:56:57;101090.47;;;-4.48;74.86
47883;BME280;37739;50.350;7.578;2024-01-11T01:59:24;101095.50;;;-4.48;74.65
47883;BME280;37739;50.350;7.578;2024-01-11T02:01:53;101105.19;;;-4.44;74.28
47883;BME280;37739;50.350;7.578;2024-01-11T02:04:19;101105.38;;;-4.50;74.88
47883;BME280;37739;50.350;7.578;2024-01-11T02:06:48;101105.69;;;-4.47;74.03
47883;BME280;37739;50.350;7.578;2024-01-11T02:09:19;101105.50;;;-4.48;73.65
47883;BME280;37739;50.350;7.578;2024-01-11T02:11:45;101106.78;;;-4.52;74.60
47883;BME280;37739;50.350;7.578;2024-01-11T02:14:10;101109.81;;;-4.55;73.97
47883;BME280;37739;50.350;7.578;2024-01-11T02:16:38;101108.41;;;-4.60;74.55
47883;BME280;37739;50.350;7.578;2024-01-11T02:19:06;101097.47;;;-4.60;74.80
47883;BME280;37739;50.350;7.578;2024-01-11T02:21:33;101094.06;;;-4.61;74.69
47883;BME280;37739;50.350;7.578;2024-01-11T02:24:06;101098.19;;;-4.61;74.44
47883;BME280;37739;50.350;7.578;2024-01-11T02:26:31;101092.13;;;-4.63;74.01
47883;BME280;37739;50.350;7.578;2024-01-11T02:28:56;101094.63;;;-4.63;74.02
47883;BME280;37739;50.350;7.578;2024-01-11T02:31:22;101105.53;;;-4.63;74.28
47883;BME280;37739;50.350;7.578;2024-01-11T02:33:47;101103.72;;;-4.64;74.76
47883;BME280;37739;50.350;7.578;2024-01-11T02:36:13;101108.22;;;-4.61;74.66
47883;BME280;37739;50.350;7.578;2024-01-11T02:38:41;101108.41;;;-4.60;73.78
47883;BME280;37739;50.350;7.578;2024-01-11T02:41:07;101106.94;;;-4.65;74.49
47883;BME280;37739;50.350;7.578;2024-01-11T02:43:33;101096.56;;;-4.68;74.29
47883;BME280;37739;50.350;7.578;2024-01-11T02:46:05;101098.00;;;-4.70;74.27
47883;BME280;37739;50.350;7.578;2024-01-11T02:48:30;101105.88;;;-4.74;73.82
47883;BME280;37739;50.350;7.578;2024-01-11T02:50:58;101108.03;;;-4.77;73.83
47883;BME280;37739;50.350;7.578;2024-01-11T02:53:26;101114.81;;;-4.76;74.12
47883;BME280;37739;50.350;7.578;2024-01-11T02:55:51;101113.38;;;-4.74;73.52
47883;BME280;37739;50.350;7.578;2024-01-11T02:58:23;101102.66;;;-4.73;73.98
47883;BME280;37739;50.350;7.578;2024-01-11T03:00:49;101106.06;;;-4.72;73.77
47883;BME280;37739;50.350;7.578;2024-01-11T03:03:16;101104.44;;;-4.72;74.31
47883;BME280;37739;50.350;7.578;2024-01-11T03:05:44;101099.78;;;-4.76;74.13
47883;BME280;37739;50.350;7.578;2024-01-11T03:08:11;101093.69;;;-4.78;73.76
47883;BME280;37739;50.350;7.578;2024-01-11T03:10:37;101102.47;;;-4.82;73.85
47883;BME280;37739;50.350;7.578;2024-01-11T03:13:03;101101.38;;;-4.84;74.04
47883;BME280;37739;50.350;7.578;2024-01-11T03:15:31;101094.94;;;-4.82;73.45
47883;BME280;37739;50.350;7.578;2024-01-11T03:17:56;101098.88;;;-4.84;74.26
47883;BME280;37739;50.350;7.578;2024-01-11T03:20:24;101097.44;;;-4.82;73.72
47883;BME280;37739;50.350;7.578;2024-01-11T03:22:53;101093.50;;;-4.80;74.67
47883;BME280;37739;50.350;7.578;2024-01-11T03:25:18;101085.81;;;-4.81;74.57
47883;BME280;37739;50.350;7.578;2024-01-11T03:27:46;101094.06;;;-4.82;74.71
47883;BME280;37739;50.350;7.578;2024-01-11T03:30:11;101088.31;;;-4.81;74.46
47883;BME280;37739;50.350;7.578;2024-01-11T03:32:39;101086.91;;;-4.86;74.94
47883;BME280;37739;50.350;7.578;2024-01-11T03:35:07;101085.47;;;-4.84;75.07
47883;BME280;37739;50.350;7.578;2024-01-11T03:37:38;101086.72;;;-4.88;74.52
47883;BME280;37739;50.350;7.578;2024-01-11T03:40:06;101093.69;;;-4.85;74.65
47883;BME280;37739;50.350;7.578;2024-01-11T03:42:32;101082.78;;;-4.86;74.60
47883;BME280;37739;50.350;7.578;2024-01-11T03:45:00;101078.84;;;-4.84;74.89
47883;BME280;37739;50.350;7.578;2024-01-11T03:47:25;101075.09;;;-4.87;75.15
47883;BME280;37739;50.350;7.578;2024-01-11T03:49:50;101071.31;;;-4.91;75.81
47883;BME280;37739;50.350;7.578;2024-01-11T03:52:16;101074.75;;;-4.90;75.02
47883;BME280;37739;50.350;7.578;2024-01-11T03:54:43;101067.06;;;-4.92;74.98
47883;BME280;37739;50.350;7.578;2024-01-11T03:57:09;101064.53;;;-4.92;74.91
47883;BME280;37739;50.350;7.578;2024-01-11T03:59:34;101061.66;;;-4.95;74.61
47883;BME280;37739;50.350;7.578;2024-01-11T04:02:00;101062.91;;;-4.99;74.46
47883;BME280;37739;50.350;7.578;2024-01-11T04:04:25;101070.97;;;-5.01;74.33
47883;BME280;37739;50.350;7.578;2024-01-11T04:06:55;101075.59;;;-5.04;75.10
47883;BME280;37739;50.350;7.578;2024-01-11T04:09:22;101071.66;;;-5.02;74.70
47883;BME280;37739;50.350;7.578;2024-01-11T04:11:48;101067.56;;;-5.02;75.37
47883;BME280;37739;50.350;7.578;2024-01-11T04:14:13;101081.13;;;-5.07;74.86
47883;BME280;37739;50.350;7.578;2024-01-11T04:16:45;101078.09;;;-5.04;75.19
47883;BME280;37739;50.350;7.578;2024-01-11T04:19:10;101076.84;;;-5.01;75.11
47883;BME280;37739;50.350;7.578;2024-01-11T04:21:35;101075.28;;;-5.00;74.88
47883;BME280;37739;50.350;7.578;2024-01-11T04:24:04;101079.72;;;-5.05;74.77
47883;BME280;37739;50.350;7.578;2024-01-11T04:26:31;101082.94;;;-5.06;75.16
47883;BME280;37739;50.350;7.578;2024-01-11T04:28:56;101092.03;;;-5.06;75.10
47883;BME280;37739;50.350;7.578;2024-01-11T04:31:26;101094.88;;;-5.10;75.01
47883;BME280;37739;50.350;7.578;2024-01-11T04:33:53;101085.06;;;-5.09;74.34
47883;BME280;37739;50.350;7.578;2024-01-11T04:36:21;101088.28;;;-5.10;75.44
47883;BME280;37739;50.350;7.578;2024-01-11T04:38:49;101082.03;;;-5.14;75.93
47883;BME280;37739;50.350;7.578;2024-01-11T04:41:16;101079.34;;;-5.15;75.94
47883;BME280;37739;50.350;7.578;2024-01-11T04:43:44;101076.66;;;-5.17;75.05
47883;BME280;37739;50.350;7.578;2024-01-11T04:46:20;101086.47;;;-5.18;75.35
47883;BME280;37739;50.350;7.578;2024-01-11T04:48:46;101088.63;;;-5.21;75.49
47883;BME280;37739;50.350;7.578;2024-01-11T04:51:15;101090.22;;;-5.22;75.69
47883;BME280;37739;50.350;7.578;2024-01-11T04:53:43;101089.69;;;-5.19;75.90
47883;BME280;37739;50.350;7.578;2024-01-11T04:56:10;101104.72;;;-5.19;76.02
47883;BME280;37739;50.350;7.578;2024-01-11T04:58:36;101102.91;;;-5.20;75.51
47883;BME280;37739;50.350;7.578;2024-01-11T05:01:05;101106.84;;;-5.22;75.43
47883;BME280;37739;50.350;7.578;2024-01-11T05:03:35;101110.06;;;-5.23;76.20
47883;BME280;37739;50.350;7.578;2024-01-11T05:06:02;101100.56;;;-5.26;76.74
47883;BME280;37739;50.350;7.578;2024-01-11T05:08:29;101105.75;;;-5.24;75.96
47883;BME280;37739;50.350;7.578;2024-01-11T05:10:54;101102.19;;;-5.26;75.66
47883;BME280;37739;50.350;7.578;2024-01-11T05:13:20;101099.63;;;-5.34;75.36
47883;BME280;37739;50.350;7.578;2024-01-11T05:15:50;101098.56;;;-5.36;75.53
47883;BME280;37739;50.350;7.578;2024-01-11T05:18:20;101102.16;;;-5.34;75.20
47883;BME280;37739;50.350;7.578;2024-01-11T05:20:45;101102.34;;;-5.32;75.65
47883;BME280;37739;50.350;7.578;2024-01-11T05:23:15;101099.84;;;-5.32;76.49
47883;BME280;37739;50.350;7.578;2024-01-11T05:25:40;101108.94;;;-5.33;75.77
47883;BME280;37739;50.350;7.578;2024-01-11T05:28:08;101108.75;;;-5.34;76.25
47883;BME280;37739;50.350;7.578;2024-01-11T05:30:35;101115.03;;;-5.30;76.50
47883;BME280;37739;50.350;7.578;2024-01-11T05:33:06;101115.72;;;-5.32;76.02
47883;BME280;37739;50.350;7.578;2024-01-11T05:35:34;101121.66;;;-5.31;75.79
47883;BME280;37739;50.350;7.578;2024-01-11T05:37:59;101119.47;;;-5.35;75.89
47883;BME280;37739;50.350;7.578;2024-01-11T05:40:24;101120.88;;;-5.37;75.95
47883;BME280;37739;50.350;7.578;2024-01-11T05:42:50;101122.69;;;-5.36;76.27
47883;BME280;37739;50.350;7.578;2024-01-11T05:45:15;101132.84;;;-5.42;76.25
47883;BME280;37739;50.350;7.578;2024-01-11T05:47:43;101123.03;;;-5.40;77.13
47883;BME280;37739;50.350;7.578;2024-01-11T05:50:09;101129.13;;;-5.38;77.17
47883;BME280;37739;50.350;7.578;2024-01-11T05:52:35;101138.22;;;-5.39;76.96
47883;BME280;37739;50.350;7.578;2024-01-11T05:55:00;101134.66;;;-5.41;76.02
47883;BME280;37739;50.350;7.578;2024-01-11T05:57:30;101131.97;;;-5.42;76.62
47883;BME280;37739;50.350;7.578;2024-01-11T05:59:58;101129.81;;;-5.39;76.82
47883;BME280;37739;50.350;7.578;2024-01-11T06:02:25;101144.28;;;-5.44;76.24
47883;BME280;37739;50.350;7.578;2024-01-11T06:04:53;101142.47;;;-5.45;76.56
47883;BME280;37739;50.350;7.578;2024-01-11T06:07:20;101150.91;;;-5.44;76.95
47883;BME280;37739;50.350;7.578;2024-01-11T06:09:46;101168.56;;;-5.43;77.12
47883;BME280;37739;50.350;7.578;2024-01-11T06:12:11;101163.56;;;-5.43;77.72
47883;BME280;37739;50.350;7.578;2024-01-11T06:14:38;101173.41;;;-5.44;77.12
47883;BME280;37739;50.350;7.578;2024-01-11T06:17:06;101176.06;;;-5.43;76.85
47883;BME280;37739;50.350;7.578;2024-01-11T06:19:32;101173.22;;;-5.46;77.53
47883;BME280;37739;50.350;7.578;2024-01-11T06:21:57;101173.22;;;-5.46;77.71
47883;BME280;37739;50.350;7.578;2024-01-11T06:24:23;101178.34;;;-5.52;78.27
47883;BME280;37739;50.350;7.578;2024-01-11T06:26:50;101186.25;;;-5.48;78.47
47883;BME280;37739;50.350;7.578;2024-01-11T06:29:18;101200.13;;;-5.50;78.10
47883;BME280;37739;50.350;7.578;2024-01-11T06:31:43;101200.13;;;-5.50;78.71
47883;BME280;37739;50.350;7.578;2024-01-11T06:34:09;101194.06;;;-5.53;78.67
47883;BME280;37739;50.350;7.578;2024-01-11T06:36:36;101197.63;;;-5.58;78.57
47883;BME280;37739;50.350;7.578;2024-01-11T06:39:02;101206.69;;;-5.58;78.76
47883;BME280;37739;50.350;7.578;2024-01-11T06:41:27;101203.31;;;-5.59;79.39
47883;BME280;37739;50.350;7.578;2024-01-11T06:43:52;101210.31;;;-5.56;78.90
47883;BME280;37739;50.350;7.578;2024-01-11T06:46:21;101216.41;;;-5.54;79.18
47883;BME280;37739;50.350;7.578;2024-01-11T06:48:48;101218.16;;;-5.53;79.42
47883;BME280;37739;50.350;7.578;2024-01-11T06:51:15;101212.97;;;-5.55;79.68
47883;BME280;37739;50.350;7.578;2024-01-11T06:53:41;101217.28;;;-5.54;80.14
47883;BME280;37739;50.350;7.578;2024-01-11T06:56:17;101214.25;;;-5.51;80.12
47883;BME280;37739;50.350;7.578;2024-01-11T06:58:44;101218.38;;;-5.52;78.94
47883;BME280;37739;50.350;7.578;2024-01-11T07:01:14;101211.41;;;-5.54;78.55
47883;BME280;37739;50.350;7.578;2024-01-11T07:03:39;101215.81;;;-5.59;78.91
47883;BME280;37739;50.350;7.578;2024-01-11T07:06:06;101217.75;;;-5.63;79.52
47883;BME280;37739;50.350;7.578;2024-01-11T07:08:32;101211.53;;;-5.60;79.13
47883;BME280;37739;50.350;7.578;2024-01-11T07:11:00;101216.16;;;-5.63;78.37
47883;BME280;37739;50.350;7.578;2024-01-11T07:13:27;101214.03;;;-5.60;78.43
47883;BME280;37739;50.350;7.578;2024-01-11T07:15:53;101212.03;;;-5.62;78.46
47883;BME280;37739;50.350;7.578;2024-01-11T07:18:22;101220.81;;;-5.59;78.25
47883;BME280;37739;50.350;7.578;2024-01-11T07:20:50;101221.53;;;-5.60;77.85
47883;BME280;37739;50.350;7.578;2024-01-11T07:23:18;101234.19;;;-5.58;78.21
47883;BME280;37739;50.350;7.578;2024-01-11T07:25:48;101240.25;;;-5.63;78.35
47883;BME280;37739;50.350;7.578;2024-01-11T07:28:16;101229.94;;;-5.59;78.20
47883;BME280;37739;50.350;7.578;2024-01-11T07:30:45;101231.69;;;-5.58;77.83
47883;BME280;37739;50.350;7.578;2024-01-11T07:33:11;101235.59;;;-5.67;77.79
47883;BME280;37739;50.350;7.578;2024-01-11T07:35:43;101231.09;;;-5.70;78.31
47883;BME280;37739;50.350;7.578;2024-01-11T07:38:11;101234.66;;;-5.68;78.26
47883;BME280;37739;50.350;7.578;2024-01-11T07:40:36;101228.78;;;-5.68;78.34
47883;BME280;37739;50.350;7.578;2024-01-11T07:43:02;101232.38;;;-5.66;78.15
47883;BME280;37739;50.350;7.578;2024-01-11T07:45:33;101233.66;;;-5.63;78.45
47883;BME280;37739;50.350;7.578;2024-01-11T07:47:59;101228.44;;;-5.64;77.99
47883;BME280;37739;50.350;7.578;2024-01-11T07:50:27;101216.47;;;-5.67;78.45
47883;BME280;37739;50.350;7.578;2024-01-11T07:52:55;101221.28;;;-5.68;78.20
47883;BME280;37739;50.350;7.578;2024-01-11T07:55:21;101215.75;;;-5.66;78.50
47883;BME280;37739;50.350;7.578;2024-01-11T07:57:49;101218.44;;;-5.64;78.72
47883;BME280;37739;50.350;7.578;2024-01-11T08:00:17;101217.56;;;-5.65;78.61
47883;BME280;37739;50.350;7.578;2024-01-11T08:02:46;101225.06;;;-5.65;78.85
47883;BME280;37739;50.350;7.578;2024-01-11T08:05:11;101227.03;;;-5.62;79.49
47883;BME280;37739;50.350;7.578;2024-01-11T08:07:36;101224.94;;;-5.59;79.50
47883;BME280;37739;50.350;7.578;2024-01-11T08:10:07;101232.63;;;-5.58;79.34
47883;BME280;37739;50.350;7.578;2024-01-11T08:12:34;101237.28;;;-5.54;78.74
47883;BME280;37739;50.350;7.578;2024-01-11T08:14:59;101226.06;;;-5.50;78.28
47883;BME280;37739;50.350;7.578;2024-01-11T08:17:27;101233.91;;;-5.54;78.91
47883;BME280;37739;50.350;7.578;2024-01-11T08:19:57;101232.47;;;-5.52;79.14
47883;BME280;37739;50.350;7.578;2024-01-11T08:22:25;101234.44;;;-5.49;79.09
47883;BME280;37739;50.350;7.578;2024-01-11T08:24:50;101230.19;;;-5.43;78.74
47883;BME280;37739;50.350;7.578;2024-01-11T08:27:15;101231.63;;;-5.45;79.07
47883;BME280;37739;50.350;7.578;2024-01-11T08:29:42;101236.81;;;-5.44;79.82
47883;BME280;37739;50.350;7.578;2024-01-11T08:32:11;101238.59;;;-5.43;79.53
47883;BME280;37739;50.350;7.578;2024-01-11T08:34:37;101235.78;;;-5.39;79.46
47883;BME280;37739;50.350;7.578;2024-01-11T08:37:02;101238.84;;;-5.34;80.05
47883;BME280;37739;50.350;7.578;2024-01-11T08:39:32;101239.03;;;-5.33;79.99
47883;BME280;37739;50.350;7.578;2024-01-11T08:41:58;101247.63;;;-5.30;79.93
47883;BME280;37739;50.350;7.578;2024-01-11T08:44:27;101253.91;;;-5.27;79.76
47883;BME280;37739;50.350;7.578;2024-01-11T08:46:55;101263.72;;;-5.28;80.12
47883;BME280;37739;50.350;7.578;2024-01-11T08:49:20;101261.91;;;-5.29;80.82
47883;BME280;37739;50.350;7.578;2024-01-11T08:51:45;101269.00;;;-5.40;81.22
47883;BME280;37739;50.350;7.578;2024-01-11T08:54:13;101271.50;;;-5.40;82.07
47883;BME280;37739;50.350;7.578;2024-01-11T08:56:41;101272.97;;;-5.35;82.47
47883;BME280;37739;50.350;7.578;2024-01-11T08:59:07;101274.13;;;-5.18;81.55
47883;BME280;37739;50.350;7.578;2024-01-11T09:01:35;101261.47;;;-5.13;81.00
47883;BME280;37739;50.350;7.578;2024-01-11T09:04:03;101256.13;;;-5.08;80.84
47883;BME280;37739;50.350;7.578;2024-01-11T09:06:35;101252.97;;;-5.00;81.27
47883;BME280;37739;50.350;7.578;2024-01-11T09:09:01;101249.53;;;-5.01;81.32
47883;BME280;37739;50.350;7.578;2024-01-11T09:11:31;101255.47;;;-4.93;81.35
47883;BME280;37739;50.350;7.578;2024-01-11T09:14:00;101260.13;;;-4.96;81.30
47883;BME280;37739;50.350;7.578;2024-01-11T09:16:25;101260.47;;;-5.00;82.12
47883;BME280;37739;50.350;7.578;2024-01-11T09:18:50;101259.97;;;-4.90;81.77
47883;BME280;37739;50.350;7.578;2024-01-11T09:21:16;101246.38;;;-4.85;81.49
47883;BME280;37739;50.350;7.578;2024-01-11T09:23:41;101254.06;;;-4.91;81.88
47883;BME280;37739;50.350;7.578;2024-01-11T09:26:10;101253.53;;;-4.88;81.63
47883;BME280;37739;50.350;7.578;2024-01-11T09:28:35;101255.16;;;-4.82;81.33
47883;BME280;37739;50.350;7.578;2024-01-11T09:31:01;101267.88;;;-4.80;81.35
47883;BME280;37739;50.350;7.578;2024-01-11T09:33:27;101279.16;;;-4.77;81.74
47883;BME280;37739;50.350;7.578;2024-01-11T09:35:57;101277.78;;;-4.67;81.47
47883;BME280;37739;50.350;7.578;2024-01-11T09:38:25;101271.19;;;-4.53;81.14
47883;BME280;37739;50.350;7.578;2024-01-11T09:41:03;101273.72;;;-4.45;80.26
47883;BME280;37739;50.350;7.578;2024-01-11T09:43:34;101268.16;;;-4.43;80.94
47883;BME280;37739;50.350;7.578;2024-01-11T09:46:05;101270.00;;;-4.35;80.46
47883;BME280;37739;50.350;7.578;2024-01-11T09:48:34;101270.19;;;-4.26;80.71
47883;BME280;37739;50.350;7.578;2024-01-11T09:51:04;101282.94;;;-4.17;80.41
47883;BME280;37739;50.350;7.578;2024-01-11T09:53:33;101278.44;;;-4.12;81.13
47883;BME280;37739;50.350;7.578;2024-01-11T09:55:59;101282.59;;;-3.91;80.40
47883;BME280;37739;50.350;7.578;2024-01-11T09:58:25;101286.38;;;-3.81;80.40
47883;BME280;37739;50.350;7.578;2024-01-11T10:00:55;101289.78;;;-3.73;80.02
47883;BME280;37739;50.350;7.578;2024-01-11T10:03:25;101286.53;;;-3.79;80.51
47883;BME280;37739;50.350;7.578;2024-01-11T10:05:57;101279.91;;;-3.71;80.36
47883;BME280;37739;50.350;7.578;2024-01-11T10:08:23;101283.47;;;-3.62;80.86
47883;BME280;37739;50.350;7.578;2024-01-11T10:10:49;101273.81;;;-3.52;79.83
47883;BME280;37739;50.350;7.578;2024-01-11T10:13:15;101269.13;;;-3.34;79.14
47883;BME280;37739;50.350;7.578;2024-01-11T10:15:41;101265.50;;;-3.22;78.78
47883;BME280;37739;50.350;7.578;2024-01-11T10:18:09;101259.38;;;-3.10;77.62
47883;BME280;37739;50.350;7.578;2024-01-11T10:20:38;101256.84;;;-3.03;76.68
47883;BME280;37739;50.350;7.578;2024-01-11T10:23:03;101255.56;;;-2.92;76.54
47883;BME280;37739;50.350;7.578;2024-01-11T10:25:29;101244.22;;;-2.81;75.91
47883;BME280;37739;50.350;7.578;2024-01-11T10:27:54;101240.25;;;-2.79;76.20
47883;BME280;37739;50.350;7.578;2024-01-11T10:30:25;101229.66;;;-2.77;77.01
47883;BME280;37739;50.350;7.578;2024-01-11T10:32:57;101236.81;;;-2.72;77.85
47883;BME280;37739;50.350;7.578;2024-01-11T10:35:23;101243.47;;;-2.73;77.42
47883;BME280;37739;50.350;7.578;2024-01-11T10:37:51;101229.78;;;-2.68;77.88
47883;BME280;37739;50.350;7.578;2024-01-11T10:40:19;101233.31;;;-2.51;78.03
47883;BME280;37739;50.350;7.578;2024-01-11T10:42:58;101237.91;;;-2.40;77.67
47883;BME280;37739;50.350;7.578;2024-01-11T10:45:25;101248.69;;;-2.41;76.41
47883;BME280;37739;50.350;7.578;2024-01-11T10:48:01;101245.34;;;-2.56;77.21
47883;BME280;37739;50.350;7.578;2024-01-11T10:50:33;101252.34;;;-2.53;77.69
47883;BME280;37739;50.350;7.578;2024-01-11T10:55:57;101241.34;;;-2.47;78.08
47883;BME280;37739;50.350;7.578;2024-01-11T10:58:25;101249.88;;;-2.30;77.48
47883;BME280;37739;50.350;7.578;2024-01-11T11:00:53;101238.97;;;-2.38;77.66
47883;BME280;37739;50.350;7.578;2024-01-11T11:03:23;101238.47;;;-2.20;77.18
47883;BME280;37739;50.350;7.578;2024-01-11T11:05:56;101231.88;;;-1.96;76.21
47883;BME280;37739;50.350;7.578;2024-01-11T11:08:23;101230.00;;;-2.13;74.79
47883;BME280;37739;50.350;7.578;2024-01-11T11:10:51;101233.63;;;-1.95;76.54
47883;BME280;37739;50.350;7.578;2024-01-11T11:13:22;101226.44;;;-1.92;75.82
47883;BME280;37739;50.350;7.578;2024-01-11T11:15:48;101218.28;;;-1.66;75.19
47883;BME280;37739;50.350;7.578;2024-01-11T11:18:17;101216.53;;;-1.51;74.72
47883;BME280;37739;50.350;7.578;2024-01-11T11:20:44;101213.88;;;-1.37;73.61
47883;BME280;37739;50.350;7.578;2024-01-11T11:23:11;101213.38;;;-1.26;73.52
47883;BME280;37739;50.350;7.578;2024-01-11T11:25:37;101210.22;;;-1.16;73.16
47883;BME280;37739;50.350;7.578;2024-01-11T11:28:07;101218.41;;;-1.26;73.10
47883;BME280;37739;50.350;7.578;2024-01-11T11:30:39;101218.66;;;-1.31;72.20
47883;BME280;37739;50.350;7.578;2024-01-11T11:35:35;101201.69;;;-0.93;70.06
47883;BME280;37739;50.350;7.578;2024-01-11T11:38:00;101198.75;;;-0.89;69.03
47883;BME280;37739;50.350;7.578;2024-01-11T11:40:43;101203.38;;;-0.85;69.73
47883;BME280;37739;50.350;7.578;2024-01-11T11:43:10;101204.63;;;-0.57;69.75
47883;BME280;37739;50.350;7.578;2024-01-11T11:45:40;101211.81;;;-0.69;68.02
47883;BME280;37739;50.350;7.578;2024-01-11T11:51:22;101216.50;;;-0.72;69.15
47883;BME280;37739;50.350;7.578;2024-01-11T11:53:51;101213.31;;;-0.62;68.10
47883;BME280;37739;50.350;7.578;2024-01-11T11:56:18;101203.69;;;-0.82;68.61
47883;BME280;37739;50.350;7.578;2024-01-11T11:58:44;101208.28;;;-0.62;68.64
47883;BME280;37739;50.350;7.578;2024-01-11T12:01:14;101202.50;;;-0.61;68.30
47883;BME280;37739;50.350;7.578;2024-01-11T12:03:44;101204.56;;;-0.41;68.29
47883;BME280;37739;50.350;7.578;2024-01-11T12:06:17;101207.97;;;-0.16;67.63
47883;BME280;37739;50.350;7.578;2024-01-11T12:08:45;101204.88;;;-0.13;67.82
47883;BME280;37739;50.350;7.578;2024-01-11T12:11:22;101200.13;;;-0.35;67.99
47883;BME280;37739;50.350;7.578;2024-01-11T12:13:49;101201.97;;;-0.25;68.35
47883;BME280;37739;50.350;7.578;2024-01-11T12:16:15;101208.47;;;-0.36;67.69
47883;BME280;37739;50.350;7.578;2024-01-11T12:18:45;101194.63;;;-0.40;67.27
47883;BME280;37739;50.350;7.578;2024-01-11T12:21:10;101199.88;;;-0.29;66.72
47883;BME280;37739;50.350;7.578;2024-01-11T12:23:38;101202.66;;;-0.35;67.59
47883;BME280;37739;50.350;7.578;2024-01-11T12:26:07;101209.88;;;-0.47;67.61
47883;BME280;37739;50.350;7.578;2024-01-11T12:28:37;101199.34;;;-0.43;67.62
47883;BME280;37739;50.350;7.578;2024-01-11T12:31:05;101204.44;;;-0.58;68.04
47883;BME280;37739;50.350;7.578;2024-01-11T12:33:31;101205.81;;;-0.78;68.55
47883;BME280;37739;50.350;7.578;2024-01-11T12:35:59;101204.75;;;-0.80;68.03
47883;BME280;37739;50.350;7.578;2024-01-11T12:38:24;101209.72;;;-0.89;68.78
47883;BME280;37739;50.350;7.578;2024-01-11T12:40:50;101203.19;;;-0.87;68.45
47883;BME280;37739;50.350;7.578;2024-01-11T12:43:15;101195.25;;;-0.83;69.01
47883;BME280;37739;50.350;7.578;2024-01-11T12:45:41;101193.19;;;-0.78;68.38
47883;BME280;37739;50.350;7.578;2024-01-11T12:48:07;101190.47;;;-0.88;68.85
47883;BME280;37739;50.350;7.578;2024-01-11T12:50:34;101185.69;;;-0.94;69.19
47883;BME280;37739;50.350;7.578;2024-01-11T12:53:13;101172.56;;;-0.83;69.71
47883;BME280;37739;50.350;7.578;2024-01-11T12:55:48;101166.09;;;-0.72;69.13
47883;BME280;37739;50.350;7.578;2024-01-11T12:58:21;101160.13;;;-0.56;68.78
47883;BME280;37739;50.350;7.578;2024-01-11T13:00:47;101164.53;;;-0.63;68.45